sensor_id;sensor_type;location;lat;lon;timestamp;pressure;altitude;pressure_sealevel;temperature;humidity
26839;BME280;40088;51.214;6.786;2023-10-13T00:02:57;101030.41;;;18.70;72.41
26839;BME280;40088;51.214;6.786;2023-10-13T00:13:00;101028.50;;;18.71;72.31
26839;BME280;40088;51.214;6.786;2023-10-13T00:23:10;101007.47;;;18.70;72.32
26839;BME280;40088;51.214;6.786;2023-10-13T00:33:12;101008.31;;;18.70;72.44
26839;BME280;40088;51.214;6.786;2023-10-13T00:43:12;100986.22;;;18.70;72.53
26839;BME280;40088;51.214;6.786;2023-10-13T00:53:18;100987.97;;;18.71;72.49
26839;BME280;40088;51.214;6.786;2023-10-13T01:03:21;100966.91;;;18.70;72.55
26839;BME280;40088;51.214;6.786;2023-10-13T01:13:26;100967.97;;;18.69;72.37
26839;BME280;40088;51.214;6.786;2023-10-13T01:23:27;100954.84;;;18.71;72.33
26839;BME280;40088;51.214;6.786;2023-10-13T01:33:28;100946.56;;;18.71;72.63
26839;BME280;40088;51.214;6.786;2023-10-13T01:43:29;100936.53;;;18.70;72.41
26839;BME280;40088;51.214;6.786;2023-10-13T01:53:29;100914.47;;;18.70;72.33
26839;BME280;40088;51.214;6.786;2023-10-13T02:03:29;100891.53;;;18.70;72.63
26839;BME280;40088;51.214;6.786;2023-10-13T02:13:30;100881.34;;;18.70;72.73
26839;BME280;40088;51.214;6.786;2023-10-13T02:23:30;100869.44;;;18.70;72.66
26839;BME280;40088;51.214;6.786;2023-10-13T02:33:31;100859.25;;;18.70;72.51
26839;BME280;40088;51.214;6.786;2023-10-13T02:43:35;100847.19;;;18.71;72.52
26839;BME280;40088;51.214;6.786;2023-10-13T02:53:35;100829.97;;;18.69;72.71
26839;BME280;40088;51.214;6.786;2023-10-13T03:03:35;100809.56;;;18.70;72.68
26839;BME280;40088;51.214;6.786;2023-10-13T03:13:37;100805.78;;;18.71;72.87
26839;BME280;40088;51.214;6.786;2023-10-13T03:23:37;100779.03;;;18.72;72.83
26839;BME280;40088;51.214;6.786;2023-10-13T03:33:46;100763.31;;;18.72;73.11
26839;BME280;40088;51.214;6.786;2023-10-13T03:43:46;100762.66;;;18.70;72.95
26839;BME280;40088;51.214;6.786;2023-10-13T03:54:07;100739.53;;;18.71;73.03
26839;BME280;40088;51.214;6.786;2023-10-13T04:04:07;100727.44;;;18.72;72.83
26839;BME280;40088;51.214;6.786;2023-10-13T04:14:36;100727.44;;;18.72;72.80
26839;BME280;40088;51.214;6.786;2023-10-13T04:24:55;100708.09;;;18.72;73.12
26839;BME280;40088;51.214;6.786;2023-10-13T04:35:21;100686.03;;;18.72;73.08
26839;BME280;40088;51.214;6.786;2023-10-13T04:45:24;100675.81;;;18.73;73.13
26839;BME280;40088;51.214;6.786;2023-10-13T04:55:33;100660.50;;;18.70;73.00
26839;BME280;40088;51.214;6.786;2023-10-13T05:05:48;100650.13;;;18.72;72.89
26839;BME280;40088;51.214;6.786;2023-10-13T05:16:07;100651.19;;;18.71;73.23
26839;BME280;40088;51.214;6.786;2023-10-13T05:26:26;100642.69;;;18.73;73.11
26839;BME280;40088;51.214;6.786;2023-10-13T05:36:46;100654.59;;;18.73;73.12
26839;BME280;40088;51.214;6.786;2023-10-13T05:47:05;100662.88;;;18.73;72.85
26839;BME280;40088;51.214;6.786;2023-10-13T05:57:24;100673.91;;;18.73;73.24
26839;BME280;40088;51.214;6.786;2023-10-13T06:07:43;100680.50;;;18.72;73.49
26839;BME280;40088;51.214;6.786;2023-10-13T06:18:03;100671.16;;;18.73;73.33
26839;BME280;40088;51.214;6.786;2023-10-13T06:28:22;100625.28;;;18.72;73.13
26839;BME280;40088;51.214;6.786;2023-10-13T06:38:41;100579.22;;;18.73;73.47
26839;BME280;40088;51.214;6.786;2023-10-13T06:48:41;100579.00;;;18.74;73.38
26839;BME280;40088;51.214;6.786;2023-10-13T06:58:44;100577.94;;;18.76;73.20
26839;BME280;40088;51.214;6.786;2023-10-13T07:08:44;100577.06;;;18.75;73.39
26839;BME280;40088;51.214;6.786;2023-10-13T07:18:49;100579.00;;;18.74;73.27
26839;BME280;40088;51.214;6.786;2023-10-13T07:28:49;100566.88;;;18.76;73.62
26839;BME280;40088;51.214;6.786;2023-10-13T07:38:52;100563.28;;;18.75;73.27
26839;BME280;40088;51.214;6.786;2023-10-13T07:49:10;100558.59;;;18.76;73.08
26839;BME280;40088;51.214;6.786;2023-10-13T07:59:13;100550.31;;;18.76;73.33
26839;BME280;40088;51.214;6.786;2023-10-13T08:09:17;100531.84;;;18.76;73.39
26839;BME280;40088;51.214;6.786;2023-10-13T08:19:40;100521.88;;;18.75;73.46
26839;BME280;40088;51.214;6.786;2023-10-13T08:29:46;100523.78;;;18.74;73.42
26839;BME280;40088;51.214;6.786;2023-10-13T08:39:57;100521.88;;;18.75;73.24
26839;BME280;40088;51.214;6.786;2023-10-13T08:50:03;100491.31;;;18.77;73.63
26839;BME280;40088;51.214;6.786;2023-10-13T09:00:32;100487.69;;;18.76;73.62
26839;BME280;40088;51.214;6.786;2023-10-13T09:10:58;100481.13;;;18.77;73.48
26839;BME280;40088;51.214;6.786;2023-10-13T09:21:10;100463.50;;;18.78;73.44
26839;BME280;40088;51.214;6.786;2023-10-13T09:31:30;100450.75;;;18.77;73.77
26839;BME280;40088;51.214;6.786;2023-10-13T09:41:32;100438.66;;;18.78;73.80
26839;BME280;40088;51.214;6.786;2023-10-13T09:51:33;100412.97;;;18.78;73.94
26839;BME280;40088;51.214;6.786;2023-10-13T10:01:38;100416.56;;;18.78;73.69
26839;BME280;40088;51.214;6.786;2023-10-13T10:12:10;100427.59;;;18.78;73.99
26839;BME280;40088;51.214;6.786;2023-10-13T10:22:29;100432.06;;;18.79;74.14
26839;BME280;40088;51.214;6.786;2023-10-13T10:32:38;100408.28;;;18.78;73.91
26839;BME280;40088;51.214;6.786;2023-10-13T10:42:42;100380.44;;;18.80;74.14
26839;BME280;40088;51.214;6.786;2023-10-13T10:52:43;100373.25;;;18.79;73.93
26839;BME280;40088;51.214;6.786;2023-10-13T11:02:53;100370.47;;;18.79;74.31
26839;BME280;40088;51.214;6.786;2023-10-13T11:12:58;100344.56;;;18.80;74.05
26839;BME280;40088;51.214;6.786;2023-10-13T11:23:21;100340.72;;;18.81;74.25
26839;BME280;40088;51.214;6.786;2023-10-13T11:33:27;100321.63;;;18.79;74.29
26839;BME280;40088;51.214;6.786;2023-10-13T11:43:29;100304.84;;;18.81;74.29
26839;BME280;40088;51.214;6.786;2023-10-13T11:53:31;100294.88;;;18.80;73.99
26839;BME280;40088;51.214;6.786;2023-10-13T12:03:32;100296.56;;;18.81;74.00
26839;BME280;40088;51.214;6.786;2023-10-13T12:13:50;100288.50;;;18.79;74.48
26839;BME280;40088;51.214;6.786;2023-10-13T12:23:51;100278.09;;;18.81;74.36
26839;BME280;40088;51.214;6.786;2023-10-13T12:33:52;100275.31;;;18.81;74.06
26839;BME280;40088;51.214;6.786;2023-10-13T12:43:53;100265.34;;;18.80;74.39
26839;BME280;40088;51.214;6.786;2023-10-13T12:54:12;100252.41;;;18.81;74.31
26839;BME280;40088;51.214;6.786;2023-10-13T13:04:16;100257.91;;;18.81;74.38
26839;BME280;40088;51.214;6.786;2023-10-13T13:14:25;100270.88;;;18.80;74.19
26839;BME280;40088;51.214;6.786;2023-10-13T13:24:29;100276.19;;;18.82;74.29
26839;BME280;40088;51.214;6.786;2023-10-13T13:34:30;100267.03;;;18.81;74.27
26839;BME280;40088;51.214;6.786;2023-10-13T13:44:30;100253.25;;;18.81;73.96
26839;BME280;40088;51.214;6.786;2023-10-13T13:54:35;100249.63;;;18.81;74.13
26839;BME280;40088;51.214;6.786;2023-10-13T14:04:35;100235.84;;;18.81;74.14
26839;BME280;40088;51.214;6.786;2023-10-13T14:14:36;100234.78;;;18.82;74.01
26839;BME280;40088;51.214;6.786;2023-10-13T14:24:37;100243.91;;;18.82;73.85
26839;BME280;40088;51.214;6.786;2023-10-13T14:34:46;100232.03;;;18.82;73.88
26839;BME280;40088;51.214;6.786;2023-10-13T14:44:48;100215.47;;;18.82;73.97
26839;BME280;40088;51.214;6.786;2023-10-13T14:54:55;100211.00;;;18.81;73.84
26839;BME280;40088;51.214;6.786;2023-10-13T15:04:55;100211.84;;;18.81;73.85
26839;BME280;40088;51.214;6.786;2023-10-13T15:14:57;100197.19;;;18.81;73.70
26839;BME280;40088;51.214;6.786;2023-10-13T15:24:59;100200.78;;;18.81;73.75
26839;BME280;40088;51.214;6.786;2023-10-13T15:35:18;100202.72;;;18.81;73.52
26839;BME280;40088;51.214;6.786;2023-10-13T15:45:18;100203.56;;;18.81;73.56
26839;BME280;40088;51.214;6.786;2023-10-13T15:55:18;100188.91;;;18.81;73.60
26839;BME280;40088;51.214;6.786;2023-10-13T16:05:19;100187.22;;;18.80;73.58
26839;BME280;40088;51.214;6.786;2023-10-13T16:15:22;100180.63;;;18.81;73.42
26839;BME280;40088;51.214;6.786;2023-10-13T16:25:23;100169.59;;;18.81;73.57
26839;BME280;40088;51.214;6.786;2023-10-13T16:35:24;100157.72;;;18.80;73.52
26839;BME280;40088;51.214;6.786;2023-10-13T16:45:24;100164.06;;;18.81;73.55
26839;BME280;40088;51.214;6.786;2023-10-13T16:55:26;100138.19;;;18.82;73.33
26839;BME280;40088;51.214;6.786;2023-10-13T17:05:29;100127.13;;;18.82;73.26
26839;BME280;40088;51.214;6.786;2023-10-13T17:15:35;100121.63;;;18.82;73.18
26839;BME280;40088;51.214;6.786;2023-10-13T17:25:36;100117.78;;;18.83;73.17
26839;BME280;40088;51.214;6.786;2023-10-13T17:35:38;100113.34;;;18.82;73.36
26839;BME280;40088;51.214;6.786;2023-10-13T17:45:42;100112.25;;;18.83;73.29
26839;BME280;40088;51.214;6.786;2023-10-13T17:55:42;100112.25;;;18.83;73.38
26839;BME280;40088;51.214;6.786;2023-10-13T18:05:42;100091.03;;;18.83;73.02
26839;BME280;40088;51.214;6.786;2023-10-13T18:15:42;100077.22;;;18.83;72.94
26839;BME280;40088;51.214;6.786;2023-10-13T18:25:43;100063.41;;;18.83;73.31
26839;BME280;40088;51.214;6.786;2023-10-13T18:35:45;100065.34;;;18.83;73.06
26839;BME280;40088;51.214;6.786;2023-10-13T18:45:46;100058.13;;;18.82;73.26
26839;BME280;40088;51.214;6.786;2023-10-13T18:55:46;100023.94;;;18.83;73.22
26839;BME280;40088;51.214;6.786;2023-10-13T19:05:55;99999.09;;;18.83;73.15
26839;BME280;40088;51.214;6.786;2023-10-13T19:15:55;99984.22;;;18.84;73.30
26839;BME280;40088;51.214;6.786;2023-10-13T19:26:00;99969.56;;;18.83;73.41
26839;BME280;40088;51.214;6.786;2023-10-13T19:36:03;99941.13;;;18.83;73.20
26839;BME280;40088;51.214;6.786;2023-10-13T19:46:04;99983.59;;;18.82;73.16
26839;BME280;40088;51.214;6.786;2023-10-13T19:56:14;99976.78;;;18.84;73.13
26839;BME280;40088;51.214;6.786;2023-10-13T20:06:18;99940.28;;;18.82;72.98
26839;BME280;40088;51.214;6.786;2023-10-13T20:16:23;99933.91;;;18.82;73.16
26839;BME280;40088;51.214;6.786;2023-10-13T20:26:24;99927.31;;;18.83;73.20
26839;BME280;40088;51.214;6.786;2023-10-13T20:36:26;99919.88;;;18.83;73.18
26839;BME280;40088;51.214;6.786;2023-10-13T20:46:26;99914.34;;;18.83;73.07
26839;BME280;40088;51.214;6.786;2023-10-13T20:56:27;99899.72;;;18.83;73.14
26839;BME280;40088;51.214;6.786;2023-10-13T21:06:27;99893.34;;;18.82;73.23
26839;BME280;40088;51.214;6.786;2023-10-13T21:16:28;99898.63;;;18.84;73.11
26839;BME280;40088;51.214;6.786;2023-10-13T21:26:28;99884.00;;;18.83;73.48
26839;BME280;40088;51.214;6.786;2023-10-13T21:36:31;99877.63;;;18.83;73.37
26839;BME280;40088;51.214;6.786;2023-10-13T21:46:36;99856.41;;;18.83;73.38
26839;BME280;40088;51.214;6.786;2023-10-13T21:56:37;99851.72;;;18.84;73.15
26839;BME280;40088;51.214;6.786;2023-10-13T22:06:40;99836.22;;;18.83;73.24
26839;BME280;40088;51.214;6.786;2023-10-13T22:16:40;99833.22;;;18.84;73.54
26839;BME280;40088;51.214;6.786;2023-10-13T22:26:41;99824.94;;;18.84;73.20
26839;BME280;40088;51.214;6.786;2023-10-13T22:36:43;99808.63;;;18.83;73.37
26839;BME280;40088;51.214;6.786;2023-10-13T22:46:43;99810.31;;;18.84;73.15
26839;BME280;40088;51.214;6.786;2023-10-13T22:56:44;99814.75;;;18.85;73.21
26839;BME280;40088;51.214;6.786;2023-10-13T23:06:44;99789.06;;;18.84;73.13
26839;BME280;40088;51.214;6.786;2023-10-13T23:16:49;99800.34;;;18.83;73.21
26839;BME280;40088;51.214;6.786;2023-10-13T23:26:50;99813.06;;;18.84;73.11
26839;BME280;40088;51.214;6.786;2023-10-13T23:36:50;99786.56;;;18.83;73.32
26839;BME280;40088;51.214;6.786;2023-10-13T23:46:50;99789.06;;;18.84;73.35
26839;BME280;40088;51.214;6.786;2023-10-13T23:56:51;99786.31;;;18.84;73.30
